Time;durP1;ratioP1;P1;durP2;ratioP2;P2;SDS_P1;SDS_P2;PMS_P1;PMS_P2;Temp;Humidity;BMP_temperature;BMP_pressure;BME280_temperature;BME280_humidity;BME280_pressure;Samples;Min_cycle;Max_cycle;Signal;HPM_P1;HPM_P2
2023/10/09 00:01:09;;;;;;;5.63;2.17;;;;;;;12.63;76.92;99240.31;5008227;28;20087;-82
2023/10/09 00:03:36;;;;;;;3.20;2.42;;;;;;;12.48;76.65;99213.38;5028587;28;20037;-81
2023/10/09 00:06:02;;;;;;;3.15;1.80;;;;;;;12.52;76.74;99230.56;5027236;28;20389;-82
2023/10/09 00:08:31;;;;;;;3.40;2.40;;;;;;;12.68;76.56;99235.84;5043708;28;20041;-82
2023/10/09 00:11:15;;;;;;;3.92;1.92;;;;;;;12.58;77.21;99240.28;5010347;28;20025;-82
2023/10/09 00:13:48;;;;;;;2.53;2.10;;;;;;;12.38;77.11;99224.00;5027980;28;20040;-82
2023/10/09 00:16:15;;;;;;;3.53;2.20;;;;;;;12.50;77.21;99246.06;5027029;28;20506;-81
2023/10/09 00:18:47;;;;;;;2.53;2.10;;;;;;;12.23;78.68;99224.59;5027003;28;20057;-83
2023/10/09 00:21:23;;;;;;;5.82;2.45;;;;;;;11.84;81.49;99236.41;5024656;28;20040;-82
2023/10/09 00:23:59;;;;;;;3.22;2.40;;;;;;;12.19;79.05;99228.06;5027086;28;20151;-82
2023/10/09 00:26:30;;;;;;;4.93;2.50;;;;;;;12.36;78.60;99218.88;5023361;28;20506;-82
2023/10/09 00:28:55;;;;;;;3.58;2.28;;;;;;;12.41;78.13;99221.59;5024592;28;20037;-82
2023/10/09 00:31:30;;;;;;;6.97;2.10;;;;;;;12.56;78.03;99229.00;5007897;28;20387;-82
2023/10/09 00:33:56;;;;;;;3.55;1.90;;;;;;;12.54;77.74;99220.41;5029341;28;20109;-82
2023/10/09 00:36:27;;;;;;;3.22;2.80;;;;;;;12.49;77.97;99226.50;5007806;28;20523;-82
2023/10/09 00:38:52;;;;;;;3.83;2.40;;;;;;;12.35;78.10;99203.06;5010112;28;20030;-82
2023/10/09 00:41:22;;;;;;;4.40;2.60;;;;;;;12.36;77.95;99210.03;5026848;28;20038;-82
2023/10/09 00:43:49;;;;;;;4.90;2.38;;;;;;;12.42;78.23;99219.75;5026482;28;20510;-82
2023/10/09 00:48:48;;;;;;;4.47;2.30;;;;;;;12.33;78.42;99199.84;5007486;28;20133;-82
2023/10/09 00:51:18;;;;;;;3.22;2.10;;;;;;;12.50;78.04;99208.56;5026363;28;20029;-82
2023/10/09 00:53:53;;;;;;;3.72;2.08;;;;;;;12.47;77.76;99193.81;5025467;28;20083;-82
2023/10/09 00:58:55;;;;;;;4.20;2.42;;;;;;;12.49;77.84;99169.50;5027410;28;20033;-82
2023/10/09 01:01:27;;;;;;;3.85;2.30;;;;;;;12.46;77.84;99157.41;5022362;28;20647;-82
2023/10/09 01:03:53;;;;;;;4.88;2.38;;;;;;;12.30;78.94;99163.66;5025931;28;20026;-82
2023/10/09 01:06:21;;;;;;;4.18;2.60;;;;;;;12.26;79.35;99167.09;5026538;28;20056;-82
2023/10/09 01:09:10;;;;;;;6.57;2.78;;;;;;;12.39;78.01;99164.84;5028588;28;20028;-82
2023/10/09 01:11:46;;;;;;;2.95;2.15;;;;;;;12.33;78.15;99132.91;5025565;28;20036;-82
2023/10/09 01:14:12;;;;;;;4.00;2.40;;;;;;;12.39;78.30;99169.38;5009462;28;20484;-82
2023/10/09 01:16:42;;;;;;;2.90;2.63;;;;;;;12.41;77.74;99156.53;5022586;28;20129;-82
2023/10/09 01:19:24;;;;;;;4.50;2.40;;;;;;;12.52;78.03;99160.94;5022713;28;20021;-82
2023/10/09 01:21:51;;;;;;;3.70;2.08;;;;;;;12.29;78.25;99143.31;5026015;28;20034;-82
2023/10/09 01:24:16;;;;;;;4.93;2.80;;;;;;;12.34;78.31;99150.59;5024771;28;20496;-82
2023/10/09 01:26:54;;;;;;;3.47;2.42;;;;;;;12.24;78.62;99155.84;5023438;28;20021;-82
2023/10/09 01:29:21;;;;;;;4.93;2.22;;;;;;;12.24;78.67;99129.88;5026647;28;20025;-82
2023/10/09 01:31:54;;;;;;;2.88;1.88;;;;;;;12.16;79.17;99116.97;5021070;28;20025;-82
2023/10/09 01:37:22;;;;;;;5.15;2.63;;;;;;;12.15;79.15;99127.91;5024347;28;20026;-82
2023/10/09 01:39:50;;;;;;;7.53;3.00;;;;;;;12.00;79.51;99115.19;5025955;28;20120;-82
2023/10/09 01:42:24;;;;;;;5.20;3.40;;;;;;;12.12;79.80;99110.50;5022667;28;21017;-82
2023/10/09 01:44:51;;;;;;;6.53;3.10;;;;;;;11.96;80.31;99085.44;5025835;28;20039;-82
2023/10/09 01:47:18;;;;;;;6.07;3.40;;;;;;;11.83;80.70;99068.97;5021979;28;20108;-82
2023/10/09 01:49:48;;;;;;;7.05;3.80;;;;;;;11.77;81.33;99086.03;5027238;28;20496;-82
2023/10/09 01:52:18;;;;;;;5.65;3.88;;;;;;;12.03;80.80;99080.69;5023178;28;20378;-82
2023/10/09 01:54:49;;;;;;;6.93;3.42;;;;;;;12.11;80.49;99076.75;5026419;28;20028;-82
2023/10/09 01:57:15;;;;;;;6.28;3.30;;;;;;;11.89;80.54;99043.91;5010346;28;20025;-82
2023/10/09 01:59:48;;;;;;;6.13;3.40;;;;;;;12.11;80.75;99060.72;5028122;28;20116;-82
2023/10/09 02:02:26;;;;;;;5.97;3.35;;;;;;;12.10;80.53;99047.59;5021073;28;20504;-82
2023/10/09 02:07:41;;;;;;;6.35;3.38;;;;;;;12.10;80.94;99059.09;5023220;28;20034;-82
2023/10/09 02:12:59;;;;;;;6.60;4.68;;;;;;;11.78;81.63;99088.44;5023862;28;20623;-82
2023/10/09 02:18:17;;;;;;;8.77;4.82;;;;;;;11.37;84.00;99072.13;5022962;28;20033;-82
2023/10/09 02:20:46;;;;;;;;;;;;;;;11.54;84.23;99086.25;5023888;28;20493;-82
2023/10/09 02:23:13;;;;;;;19.13;4.88;;;;;;;11.48;83.60;99082.72;5029909;28;19939;-81
2023/10/09 02:25:43;;;;;;;9.50;4.75;;;;;;;10.76;87.36;99065.94;5024450;28;20140;-82
2023/10/09 02:28:17;;;;;;;8.68;4.45;;;;;;;10.97;87.81;99083.88;5006544;28;20033;-82
2023/10/09 02:30:47;;;;;;;10.27;5.15;;;;;;;10.89;86.41;99078.97;5025047;28;20559;-83
2023/10/09 02:33:27;;;;;;;9.23;4.15;;;;;;;10.92;88.56;99094.47;5024341;28;20033;-82
2023/10/09 02:35:54;;;;;;;9.00;4.55;;;;;;;11.30;85.52;99083.81;5023163;28;20147;-81
2023/10/09 02:38:22;;;;;;;9.30;4.88;;;;;;;11.11;86.86;99087.84;5021957;28;20026;-82
2023/10/09 02:41:17;;;;;;;6.47;3.97;;;;;;;11.77;83.78;99076.13;5021750;28;20025;-82
2023/10/09 02:44:10;;;;;;;11.80;4.68;;;;;;;11.54;83.91;99081.72;5010725;28;20723;-82
2023/10/09 02:46:31;;;;;;;8.07;4.68;;;;;;;12.02;82.72;99081.75;5024484;28;20745;-82
2023/10/09 02:49:03;;;;;;;9.30;4.65;;;;;;;11.75;84.12;99088.16;5005868;28;20117;-83
2023/10/09 02:51:33;;;;;;;12.18;5.32;;;;;;;11.72;84.03;99083.28;5006118;28;20036;-82
2023/10/09 02:54:41;;;;;;;8.88;4.93;;;;;;;12.08;83.06;99077.25;5021685;28;20455;-83
2023/10/09 02:59:21;;;;;;;8.55;5.32;;;;;;;11.30;86.50;99061.63;5023907;28;20544;-82
2023/10/09 03:01:48;;;;;;;9.52;4.72;;;;;;;11.77;84.06;99059.28;5023764;28;20044;-82
2023/10/09 03:04:14;;;;;;;7.63;4.25;;;;;;;11.83;84.36;99034.22;5025984;28;20460;-83
2023/10/09 03:06:49;;;;;;;8.80;5.10;;;;;;;11.91;83.76;99033.75;5020775;28;20128;-83
2023/10/09 03:09:16;;;;;;;6.10;3.97;;;;;;;12.00;83.69;99045.63;5025662;28;20022;-82
2023/10/09 03:11:53;;;;;;;11.30;4.95;;;;;;;12.10;83.42;99044.91;5010057;28;20193;-82
2023/10/09 03:14:20;;;;;;;7.10;4.60;;;;;;;12.08;83.60;99041.69;5019361;28;20163;-82
2023/10/09 03:16:48;;;;;;;9.57;5.30;;;;;;;11.88;84.26;99029.72;5041830;28;20029;-82
2023/10/09 03:19:13;;;;;;;9.80;4.28;;;;;;;11.97;83.74;99016.69;5024285;28;20032;-82
2023/10/09 03:21:39;;;;;;;9.23;4.93;;;;;;;11.88;84.56;99011.00;5025251;28;20120;-83
2023/10/09 03:24:05;;;;;;;10.93;6.30;;;;;;;12.03;84.30;99019.16;5023737;28;20101;-82
2023/10/09 03:26:31;;;;;;;10.07;5.15;;;;;;;11.90;85.19;99011.53;5021826;28;20677;-82
2023/10/09 03:29:00;;;;;;;9.02;5.15;;;;;;;11.68;85.32;98993.94;4999504;28;20148;-82
2023/10/09 03:31:32;;;;;;;12.25;5.82;;;;;;;11.54;87.12;99000.69;5021436;28;20026;-82
2023/10/09 03:33:58;;;;;;;12.77;6.82;;;;;;;11.68;86.27;98997.44;5021158;28;20030;-81
2023/10/09 03:36:26;;;;;;;8.15;4.97;;;;;;;11.92;86.06;98998.75;5024550;28;20123;-81
2023/10/09 03:38:54;;;;;;;13.30;5.63;;;;;;;11.57;86.81;98985.00;5021181;28;20365;-81
2023/10/09 03:41:20;;;;;;;8.93;4.95;;;;;;;11.71;87.07;98988.88;4987944;28;20033;-81
2023/10/09 03:43:46;;;;;;;9.20;5.32;;;;;;;11.68;86.79;98992.09;5021603;28;20036;-81
2023/10/09 03:46:54;;;;;;;12.60;5.78;;;;;;;11.69;87.31;99001.72;5024934;28;20456;-82
2023/10/09 03:49:00;;;;;;;8.05;5.40;;;;;;;12.04;85.69;99007.41;5017556;28;20069;-82
2023/10/09 03:51:29;;;;;;;11.73;5.28;;;;;;;11.90;85.65;98979.44;5021151;28;20119;-82
2023/10/09 03:53:55;;;;;;;7.03;4.80;;;;;;;11.84;87.47;99009.88;5003652;28;20481;-81
2023/10/09 03:56:24;;;;;;;9.63;5.63;;;;;;;11.96;87.10;98996.38;5022522;28;20025;-81
2023/10/09 03:58:50;;;;;;;9.93;5.60;;;;;;;11.79;87.74;99014.38;5024716;28;20029;-82
2023/10/09 04:03:55;;;;;;;8.60;6.53;;;;;;;11.36;90.36;99017.09;5029297;28;20500;-82
2023/10/09 04:06:23;;;;;;;13.63;6.97;;;;;;;11.48;88.92;99007.06;5025947;28;20022;-82
2023/10/09 04:08:51;;;;;;;9.98;5.75;;;;;;;11.24;90.17;98980.59;5027286;28;20404;-82
2023/10/09 04:11:16;;;;;;;13.18;6.63;;;;;;;11.48;89.95;98997.19;5024991;28;20992;-83
2023/10/09 04:13:46;;;;;;;12.88;6.30;;;;;;;11.55;89.59;98997.81;5027888;28;20116;-82
2023/10/09 04:18:56;;;;;;;12.68;7.32;;;;;;;11.21;90.24;98954.38;5025322;28;20113;-82
2023/10/09 04:21:43;;;;;;;11.95;7.43;;;;;;;11.20;91.43;98978.69;5022197;28;20108;-82
2023/10/09 04:26:46;;;;;;;12.85;7.75;;;;;;;10.80;95.26;98962.13;5027983;28;19936;-82
2023/10/09 04:29:38;;;;;;;21.58;10.20;;;;;;;11.10;93.24;98959.84;5021871;28;20739;-82
2023/10/09 04:32:07;;;;;;;15.27;8.30;;;;;;;11.44;91.29;98961.31;5027448;28;20148;-82
2023/10/09 04:34:37;;;;;;;23.67;11.73;;;;;;;11.48;92.86;98959.75;5023689;28;20029;-82
2023/10/09 04:37:36;;;;;;;13.32;7.97;;;;;;;11.78;88.02;98951.25;5021420;28;20056;-82
2023/10/09 04:40:10;;;;;;;19.90;10.98;;;;;;;11.67;90.15;98953.03;5010578;28;20033;-82
2023/10/09 04:42:36;;;;;;;31.10;13.70;;;;;;;11.73;90.09;98946.66;5020273;28;20036;-82
2023/10/09 04:47:37;;;;;;;14.05;7.43;;;;;;;12.02;87.34;98929.28;5026290;28;20048;-81
2023/10/09 04:50:14;;;;;;;16.30;7.82;;;;;;;12.11;85.58;98924.25;5028394;28;20108;-82
2023/10/09 05:08:22;;;;;;;29.75;13.45;;;;;;;11.90;90.90;98950.03;5010786;28;20108;-81
2023/10/09 05:13:42;;;;;;;24.25;12.82;;;;;;;11.65;93.32;98965.00;5031523;28;20123;-81
2023/10/09 05:16:26;;;;;;;15.18;9.18;;;;;;;11.88;90.21;98952.16;5029888;28;20040;-81
2023/10/09 05:18:56;;;;;;;26.42;12.65;;;;;;;12.15;88.84;98943.28;5029806;28;20102;-81
2023/10/09 05:21:44;;;;;;;20.25;11.60;;;;;;;12.27;88.14;98941.25;5028836;28;20033;-81
2023/10/09 05:37:33;;;;;;;21.40;10.57;;;;;;;12.50;87.64;98968.44;5028057;28;20375;-80
2023/10/09 05:47:57;;;;;;;20.17;10.02;;;;;;;12.46;87.05;98980.72;5022142;28;20474;-81
2023/10/09 06:08:27;;;;;;;15.48;9.00;;;;;;;12.12;89.25;98992.78;5031827;28;20033;-81
2023/10/09 06:11:06;;;;;;;15.20;8.45;;;;;;;12.15;87.85;98984.22;5009550;28;20033;-81
2023/10/09 06:13:37;;;;;;;20.30;11.77;;;;;;;12.07;89.19;98989.22;5002767;28;20039;-81
2023/10/09 06:16:19;;;;;;;16.02;7.70;;;;;;;12.43;86.55;98999.97;5009032;28;20057;-81
2023/10/09 06:18:45;;;;;;;15.80;8.65;;;;;;;12.37;88.20;99014.38;5020342;28;20116;-81
2023/10/09 06:21:39;;;;;;;20.13;9.93;;;;;;;12.15;91.14;99029.72;5019727;28;20136;-81
2023/10/09 06:24:17;;;;;;;19.77;10.70;;;;;;;11.87;92.62;99017.41;5010454;28;20501;-81
2023/10/09 06:29:35;;;;;;;24.60;11.40;;;;;;;11.75;95.05;99034.66;5013852;28;20042;-81
2023/10/09 06:34:52;;;;;;;19.38;9.75;;;;;;;12.38;88.88;99033.94;5024813;28;20393;-81
2023/10/09 06:40:08;;;;;;;20.92;10.15;;;;;;;12.26;90.49;99014.53;5025518;28;20037;-81
2023/10/09 06:42:34;;;;;;;14.60;7.68;;;;;;;12.75;85.97;99019.47;5037564;28;20060;-81
2023/10/09 06:45:09;;;;;;;16.83;9.38;;;;;;;12.87;86.64;99029.19;5009600;28;20112;-81
2023/10/09 06:47:41;;;;;;;14.43;8.45;;;;;;;12.80;85.98;99018.69;5028434;28;20025;-81
2023/10/09 06:52:58;;;;;;;19.13;10.05;;;;;;;12.81;86.32;99028.34;5028200;28;20030;-81
2023/10/09 06:55:35;;;;;;;15.90;8.23;;;;;;;12.91;86.37;99020.38;5030072;28;20048;-82
2023/10/09 06:58:01;;;;;;;15.02;8.23;;;;;;;13.00;85.92;99034.91;5030222;28;20017;-81
2023/10/09 07:03:29;;;;;;;13.65;7.35;;;;;;;13.04;85.28;99025.28;5030319;28;20040;-81
2023/10/09 07:06:09;;;;;;;14.88;8.15;;;;;;;12.98;86.58;99044.25;5022030;28;20428;-81
2023/10/09 07:08:38;;;;;;;11.88;8.18;;;;;;;12.99;85.74;99014.53;5022940;28;20041;-81
2023/10/09 07:11:22;;;;;;;16.08;8.93;;;;;;;12.91;86.52;99032.97;5029993;28;20489;-81
2023/10/09 07:13:54;;;;;;;16.50;10.95;;;;;;;12.90;87.92;99045.56;5007216;28;20622;-82
2023/10/09 07:16:37;;;;;;;15.30;8.73;;;;;;;12.92;87.50;99040.75;5028526;28;20079;-81
2023/10/09 07:19:35;;;;;;;16.60;8.88;;;;;;;13.00;86.94;99059.00;5025642;28;20033;-81
2023/10/09 07:22:04;;;;;;;24.65;10.32;;;;;;;13.08;86.96;99053.22;5027310;28;20064;-81
2023/10/09 07:24:43;;;;;;;20.63;9.00;;;;;;;13.11;86.55;99039.28;5018523;28;20045;-82
2023/10/09 07:27:12;;;;;;;17.65;11.70;;;;;;;12.78;89.31;99051.09;4988475;28;20060;-81
2023/10/09 07:29:47;;;;;;;18.98;10.23;;;;;;;13.01;87.52;99066.00;5025577;28;20030;-81
2023/10/09 07:32:20;;;;;;;21.38;11.77;;;;;;;12.94;88.54;99069.97;5029787;28;20048;-82
2023/10/09 07:34:58;;;;;;;15.77;9.38;;;;;;;12.95;87.85;99075.09;5031444;28;20040;-81
2023/10/09 07:37:34;;;;;;;18.38;9.65;;;;;;;13.04;87.58;99065.47;5031539;28;20031;-82
2023/10/09 07:40:06;;;;;;;20.23;10.00;;;;;;;13.16;86.75;99060.75;5031142;28;20041;-81
2023/10/09 07:48:04;;;;;;;15.85;8.15;;;;;;;13.20;86.18;99074.44;5032688;28;20036;-81
2023/10/09 07:50:48;;;;;;;15.75;9.57;;;;;;;13.23;86.70;99079.28;5031740;28;20033;-81
2023/10/09 07:53:14;;;;;;;16.48;9.43;;;;;;;13.18;87.50;99079.25;5022567;28;20268;-81
2023/10/09 07:55:45;;;;;;;16.85;10.02;;;;;;;13.26;87.12;99090.28;5028465;28;20036;-81
2023/10/09 07:58:11;;;;;;;14.27;8.77;;;;;;;13.37;86.78;99080.41;5026080;28;20041;-81
2023/10/09 08:01:06;;;;;;;15.15;8.15;;;;;;;13.33;86.93;99087.38;5029156;28;20033;-81
2023/10/09 08:03:32;;;;;;;13.65;8.13;;;;;;;13.34;86.97;99084.47;5020231;28;20088;-81
2023/10/09 08:06:06;;;;;;;12.98;8.30;;;;;;;13.37;87.19;99086.59;4994559;28;20030;-81
2023/10/09 08:13:50;;;;;;;15.00;9.73;;;;;;;13.25;88.39;99090.56;4983954;28;20065;-80
2023/10/09 08:16:21;;;;;;;13.73;9.85;;;;;;;13.20;88.74;99077.13;5008602;28;20059;-81
2023/10/09 08:18:51;;;;;;;22.25;10.77;;;;;;;13.29;87.30;99068.34;5016810;28;20017;-81
2023/10/09 08:23:48;;;;;;;14.82;8.68;;;;;;;13.36;87.31;99068.91;5032937;28;20083;-81
2023/10/09 08:26:47;;;;;;;14.80;8.95;;;;;;;13.42;87.50;99070.53;5028329;28;20051;-81
2023/10/09 08:29:19;;;;;;;17.80;9.20;;;;;;;13.47;87.76;99070.56;5030503;28;20120;-81
2023/10/09 08:31:45;;;;;;;25.48;13.05;;;;;;;13.43;88.88;99063.31;5030414;28;20083;-81
2023/10/09 08:34:23;;;;;;;17.15;9.45;;;;;;;13.65;87.78;99069.28;5028769;28;20423;-81
2023/10/09 08:36:52;;;;;;;14.95;9.55;;;;;;;13.72;87.86;99069.03;5030430;28;20095;-81
2023/10/09 08:39:27;;;;;;;17.33;8.90;;;;;;;13.76;87.29;99057.53;5031203;28;20040;-81
2023/10/09 08:41:58;;;;;;;17.90;9.98;;;;;;;13.86;87.46;99062.94;5028909;28;20076;-82
2023/10/09 08:44:29;;;;;;;18.23;10.35;;;;;;;13.80;89.79;99071.22;5029475;28;20064;-81
2023/10/09 08:46:55;;;;;;;17.23;9.50;;;;;;;13.81;87.70;99060.22;5028217;28;20420;-81
2023/10/09 08:49:23;;;;;;;18.67;10.52;;;;;;;13.99;88.30;99062.44;5030371;28;20495;-82
2023/10/09 08:51:52;;;;;;;18.58;10.90;;;;;;;14.02;87.86;99067.25;5029494;28;20104;-82
2023/10/09 08:54:18;;;;;;;21.48;11.32;;;;;;;13.89;88.81;99054.34;5032074;28;20030;-81
2023/10/09 08:56:51;;;;;;;19.42;11.48;;;;;;;13.95;88.26;99041.75;5031673;28;20021;-81
2023/10/09 08:59:20;;;;;;;22.38;11.50;;;;;;;14.02;88.82;99051.16;5020250;28;20060;-82
2023/10/09 09:01:51;;;;;;;17.60;11.05;;;;;;;13.82;91.41;99039.56;5019803;28;20604;-81
2023/10/09 09:04:39;;;;;;;25.15;12.63;;;;;;;14.04;89.05;99046.31;5030721;28;20025;-82
2023/10/09 09:07:26;;;;;;;16.17;10.70;;;;;;;14.18;88.14;99038.56;5015096;28;20025;-82
2023/10/09 09:10:17;;;;;;;19.55;11.38;;;;;;;14.20;87.51;99029.16;5024500;28;20034;-82
2023/10/09 09:12:43;;;;;;;17.30;11.25;;;;;;;14.21;87.25;99012.00;5032516;28;20021;-82
2023/10/09 09:15:19;;;;;;;16.55;10.60;;;;;;;14.19;88.13;99029.44;5032735;28;20044;-83
2023/10/09 09:17:45;;;;;;;;;;;;;;;14.40;87.62;99047.22;5033015;28;20552;-83
2023/10/09 09:20:30;;;;;;;20.13;11.43;;;;;;;14.37;87.69;99055.00;5031575;28;20020;-82
2023/10/09 09:22:56;;;;;;;16.85;10.90;;;;;;;14.36;87.83;99042.63;5032495;28;20036;-82
2023/10/09 09:25:24;;;;;;;18.75;10.25;;;;;;;14.36;88.09;99040.75;5020793;28;20045;-82
2023/10/09 09:27:52;;;;;;;18.95;10.43;;;;;;;14.53;86.76;99049.34;5027237;28;20040;-82
2023/10/09 09:30:31;;;;;;;20.83;11.60;;;;;;;14.49;87.57;99034.84;5027934;28;20026;-82
2023/10/09 09:36:02;;;;;;;20.02;11.23;;;;;;;14.43;87.63;99046.69;5030504;28;20125;-82
2023/10/09 09:38:29;;;;;;;19.00;9.75;;;;;;;14.54;86.78;99061.72;5023776;28;20034;-82
2023/10/09 09:40:57;;;;;;;23.15;11.00;;;;;;;14.48;87.07;99032.44;5029344;28;20092;-81
2023/10/09 09:43:23;;;;;;;16.58;10.25;;;;;;;14.48;87.04;99052.03;5029370;28;20041;-82
2023/10/09 09:45:52;;;;;;;13.63;10.23;;;;;;;14.44;87.48;99024.09;5030573;28;20100;-82
2023/10/09 09:48:18;;;;;;;20.35;11.35;;;;;;;14.48;87.44;99024.41;5028031;28;20028;-81
2023/10/09 09:50:46;;;;;;;16.52;10.13;;;;;;;14.45;87.77;99022.22;5029189;28;20029;-82
2023/10/09 09:53:19;;;;;;;17.90;10.23;;;;;;;14.52;87.36;99036.22;5028977;28;20021;-82
2023/10/09 09:55:55;;;;;;;20.75;9.93;;;;;;;14.56;88.26;99040.78;5028300;28;20025;-82
2023/10/09 09:58:23;;;;;;;18.50;10.38;;;;;;;14.43;88.58;99025.19;5032075;28;20381;-81
2023/10/09 10:00:57;;;;;;;15.43;9.35;;;;;;;14.45;88.68;99025.72;5030162;28;20025;-81
2023/10/09 10:03:29;;;;;;;15.63;9.60;;;;;;;14.42;88.94;99018.19;5014549;28;20039;-82
2023/10/09 10:05:57;;;;;;;15.98;9.88;;;;;;;14.56;88.42;99013.91;5030653;28;20061;-82
2023/10/09 10:08:31;;;;;;;16.95;9.35;;;;;;;14.46;89.04;99003.16;5013706;28;20041;-82
2023/10/09 10:11:04;;;;;;;18.90;10.65;;;;;;;14.49;89.27;98997.25;5014090;28;20021;-81
2023/10/09 10:13:41;;;;;;;20.63;9.85;;;;;;;14.51;88.85;98989.72;5031568;28;20409;-82
2023/10/09 10:19:21;;;;;;;18.88;10.00;;;;;;;14.45;89.08;98996.19;5030478;28;20168;-82
2023/10/09 10:21:52;;;;;;;13.52;9.35;;;;;;;14.49;89.01;98973.09;5029977;28;20021;-82
2023/10/09 10:24:51;;;;;;;16.35;9.80;;;;;;;14.56;88.79;98987.06;5022256;28;20092;-81
2023/10/09 10:27:24;;;;;;;12.88;8.95;;;;;;;14.69;88.53;98980.31;5028909;28;20044;-82
2023/10/09 10:30:11;;;;;;;15.85;9.90;;;;;;;14.71;88.11;98978.97;5028866;28;20038;-82
2023/10/09 10:32:51;;;;;;;22.33;11.10;;;;;;;14.80;87.26;98979.22;5025390;28;20477;-82
2023/10/09 10:35:32;;;;;;;19.15;10.68;;;;;;;14.66;88.43;98970.09;5027925;28;20064;-81
2023/10/09 10:40:40;;;;;;;19.88;10.63;;;;;;;14.66;88.56;98965.53;5021404;28;20055;-82
2023/10/09 10:43:09;;;;;;;19.25;10.48;;;;;;;14.62;89.49;98980.59;5028503;28;20025;-82
2023/10/09 10:45:37;;;;;;;15.73;10.13;;;;;;;14.74;88.40;98978.41;5029499;28;20033;-82
2023/10/09 10:48:08;;;;;;;17.67;9.75;;;;;;;14.79;87.40;98959.59;5028468;28;20034;-82
2023/10/09 10:50:36;;;;;;;20.42;9.60;;;;;;;14.74;87.43;98946.16;5027539;28;20037;-82
2023/10/09 10:53:15;;;;;;;21.33;10.52;;;;;;;14.90;86.66;98977.31;5027264;28;20772;-82
2023/10/09 10:56:17;;;;;;;18.42;9.60;;;;;;;14.93;86.56;98971.41;5023838;28;20091;-82
2023/10/09 10:59:36;;;;;;;17.15;10.38;;;;;;;14.98;86.48;98965.97;5029048;28;20029;-82
2023/10/09 11:02:13;;;;;;;15.10;8.82;;;;;;;14.98;86.62;98957.13;5014697;28;20128;-82
2023/10/09 11:04:43;;;;;;;20.52;10.25;;;;;;;15.12;86.38;98970.78;5020135;28;20092;-82
2023/10/09 11:18:45;;;;;;;24.17;10.27;;;;;;;15.14;86.75;98963.22;5003084;28;20456;-81
2023/10/09 11:23:53;;;;;;;13.48;8.52;;;;;;;15.02;87.62;98926.75;5033777;28;20026;-82
2023/10/09 11:26:28;;;;;;;19.67;10.50;;;;;;;15.11;87.64;98944.97;5034987;28;20037;-82
2023/10/09 11:32:09;;;;;;;17.35;9.65;;;;;;;14.99;90.29;98918.41;5034527;28;20044;-82
2023/10/09 11:34:35;;;;;;;19.23;10.07;;;;;;;15.12;89.34;98920.50;5025675;28;20037;-82
2023/10/09 11:37:01;;;;;;;14.23;8.75;;;;;;;15.33;87.52;98940.81;5014529;28;20478;-82
2023/10/09 11:39:41;;;;;;;13.75;9.65;;;;;;;15.41;87.41;98942.16;5029824;28;20056;-82
2023/10/09 11:42:08;;;;;;;14.63;9.32;;;;;;;15.48;85.99;98924.66;5032552;28;20036;-82
2023/10/09 11:44:35;;;;;;;15.20;9.32;;;;;;;15.46;85.95;98929.53;5031296;28;20038;-82
2023/10/09 11:54:59;;;;;;;16.77;8.85;;;;;;;15.57;85.31;98949.09;5032366;28;20029;-82
2023/10/09 11:57:33;;;;;;;14.05;8.57;;;;;;;15.69;85.06;98950.34;5032415;28;20018;-82
2023/10/09 12:00:10;;;;;;;23.48;9.45;;;;;;;15.54;85.16;98944.25;5030966;28;20040;-82
2023/10/09 12:02:43;;;;;;;15.65;8.55;;;;;;;15.51;84.97;98937.53;5034622;28;20472;-82
2023/10/09 12:05:16;;;;;;;12.23;8.88;;;;;;;15.48;85.58;98954.25;5028161;28;20030;-82
2023/10/09 12:07:45;;;;;;;18.42;9.07;;;;;;;15.42;85.47;98947.25;5014564;28;20056;-82
2023/10/09 12:10:13;;;;;;;15.82;9.00;;;;;;;15.41;84.88;98952.91;5012003;28;20385;-82
2023/10/09 12:12:39;;;;;;;15.05;8.27;;;;;;;15.46;85.71;98971.75;5032545;28;20095;-82
2023/10/09 12:15:06;;;;;;;16.35;8.48;;;;;;;15.34;85.04;98976.59;5028358;28;20022;-82
2023/10/09 12:17:31;;;;;;;15.32;8.60;;;;;;;15.47;85.42;98997.56;5030228;28;20065;-82
2023/10/09 12:19:58;;;;;;;14.63;8.48;;;;;;;15.39;85.67;99015.06;5030762;28;20048;-82
2023/10/09 12:22:26;;;;;;;14.77;8.98;;;;;;;15.32;86.45;99005.66;5030434;28;20061;-81
2023/10/09 12:24:52;;;;;;;18.42;8.88;;;;;;;15.20;87.62;99002.50;5028847;28;20392;-81
2023/10/09 12:27:20;;;;;;;14.27;8.40;;;;;;;15.08;88.91;99015.41;5030538;28;20021;-81
2023/10/09 12:29:46;;;;;;;20.08;9.15;;;;;;;15.12;87.56;99006.53;5025289;28;20755;-80
2023/10/09 12:32:11;;;;;;;14.18;8.75;;;;;;;14.85;89.28;99011.47;5029935;28;20027;-80
2023/10/09 12:34:38;;;;;;;19.00;8.75;;;;;;;14.94;89.57;99007.94;5006902;28;20100;-81
2023/10/09 12:37:04;;;;;;;16.60;9.43;;;;;;;14.69;89.73;98997.25;5029744;28;20489;-81
2023/10/09 12:39:33;;;;;;;15.38;9.35;;;;;;;14.79;90.08;99004.47;5030889;28;20030;-81
2023/10/09 12:42:06;;;;;;;18.15;8.95;;;;;;;14.79;90.46;99001.78;5027054;28;20544;-81
2023/10/09 12:44:34;;;;;;;18.75;10.00;;;;;;;14.79;91.70;99007.16;5028360;28;20107;-81
2023/10/09 12:47:03;;;;;;;21.80;10.30;;;;;;;14.83;91.69;99014.41;5029719;28;20496;-81
2023/10/09 12:49:29;;;;;;;18.67;9.82;;;;;;;14.88;90.94;99019.78;5027670;28;20390;-81
2023/10/09 12:51:55;;;;;;;16.02;10.32;;;;;;;14.81;91.85;99011.19;5027382;28;20044;-80
2023/10/09 12:54:26;;;;;;;19.45;9.90;;;;;;;14.86;91.43;99011.19;5012082;28;20044;-81
2023/10/09 12:56:52;;;;;;;16.33;10.18;;;;;;;14.76;91.55;99003.16;5013765;28;20120;-80
2023/10/09 12:59:19;;;;;;;24.25;9.68;;;;;;;14.97;91.58;99018.16;5030268;28;20465;-81
2023/10/09 13:01:45;;;;;;;18.25;9.98;;;;;;;14.94;92.32;99018.69;5025436;28;20064;-81
2023/10/09 13:04:17;;;;;;;16.13;9.95;;;;;;;14.91;92.38;99013.88;5028164;28;20057;-81
2023/10/09 13:06:46;;;;;;;19.05;11.60;;;;;;;14.95;92.87;99008.75;5006112;28;20036;-81
2023/10/09 13:09:13;;;;;;;14.13;9.82;;;;;;;14.96;92.10;99007.69;5038589;28;20033;-81
2023/10/09 13:11:40;;;;;;;18.73;11.13;;;;;;;14.93;92.75;99003.66;5025841;28;20032;-81
2023/10/09 13:14:16;;;;;;;18.50;11.02;;;;;;;14.93;92.81;99014.41;5016897;28;20510;-81
2023/10/09 13:16:41;;;;;;;13.35;9.75;;;;;;;14.94;93.44;99013.31;5019169;28;20026;-82
2023/10/09 13:19:09;;;;;;;18.35;10.63;;;;;;;14.84;93.50;99001.78;5019194;28;20021;-81
2023/10/09 13:21:37;;;;;;;15.02;10.13;;;;;;;14.75;92.97;98982.72;5027385;28;20033;-81
2023/10/09 13:24:03;;;;;;;19.85;11.45;;;;;;;14.92;92.24;98999.34;5022930;28;20033;-81
2023/10/09 13:26:29;;;;;;;17.75;11.13;;;;;;;14.94;93.21;99010.63;5006156;28;20048;-81
2023/10/09 13:28:56;;;;;;;16.23;10.10;;;;;;;15.00;93.13;99020.28;5014047;28;20605;-82
2023/10/09 13:31:26;;;;;;;15.35;10.27;;;;;;;14.95;92.51;99014.13;5012246;28;20362;-81
2023/10/09 13:33:54;;;;;;;17.20;11.20;;;;;;;14.99;92.70;99018.69;5022105;28;20133;-81
2023/10/09 13:36:49;;;;;;;22.67;11.15;;;;;;;14.97;92.75;99031.59;5012356;28;20049;-81
2023/10/09 13:39:22;;;;;;;20.48;11.18;;;;;;;14.93;92.37;99018.97;5027739;28;20120;-81
2023/10/09 13:41:50;;;;;;;21.02;11.88;;;;;;;14.88;93.17;99019.78;5024917;28;20159;-81
2023/10/09 13:44:16;;;;;;;21.95;12.27;;;;;;;14.90;93.21;99016.81;5019967;28;20413;-80
2023/10/09 13:46:41;;;;;;;22.92;11.52;;;;;;;14.75;94.49;98998.03;5028784;28;20029;-81
2023/10/09 13:49:12;;;;;;;24.55;14.32;;;;;;;14.82;95.42;99012.00;5024851;28;20119;-81
2023/10/09 13:51:43;;;;;;;20.45;14.10;;;;;;;14.73;95.37;99000.19;5024664;28;20064;-81
2023/10/09 13:54:09;;;;;;;21.30;14.55;;;;;;;14.84;95.00;99017.91;5006018;28;20032;-81
2023/10/09 13:56:38;;;;;;;26.30;17.23;;;;;;;14.82;95.81;99012.00;5026378;28;20030;-81
2023/10/09 13:59:10;;;;;;;26.80;19.80;;;;;;;14.80;96.26;99011.47;4996883;28;20021;-81
2023/10/09 14:01:36;;;;;;;26.27;18.13;;;;;;;14.96;94.76;99005.78;5025348;28;20022;-81
2023/10/09 14:04:06;;;;;;;29.02;18.83;;;;;;;14.88;95.75;99009.03;5028463;28;20441;-81
2023/10/09 14:06:31;;;;;;;38.63;24.52;;;;;;;14.99;95.80;99018.69;4988739;28;20051;-81
2023/10/09 14:09:05;;;;;;;35.33;24.25;;;;;;;15.02;96.15;99028.91;5010231;28;20037;-81
2023/10/09 14:11:37;;;;;;;31.40;23.38;;;;;;;15.06;95.92;99025.63;5007636;28;20026;-81
2023/10/09 14:14:12;;;;;;;40.90;29.70;;;;;;;14.90;96.75;99014.94;5042662;28;20038;-81